createdAt,value
2017-09-24T00:01:17.435Z,9.50
2017-09-24T00:03:45.697Z,9.50
2017-09-24T00:06:13.232Z,9.50
2017-09-24T00:08:40.728Z,9.60
2017-09-24T00:11:08.265Z,9.60
2017-09-24T00:13:35.753Z,9.60
2017-09-24T00:16:04.206Z,9.40
2017-09-24T00:18:32.470Z,9.40
2017-09-24T00:21:00.738Z,9.40
2017-09-24T00:23:29.045Z,9.30
2017-09-24T00:25:56.544Z,9.30
2017-09-24T00:28:24.082Z,9.30
2017-09-24T00:30:52.390Z,9.20
2017-09-24T00:33:19.942Z,9.20
2017-09-24T00:35:47.436Z,9.20
2017-09-24T00:38:16.029Z,9.20
2017-09-24T00:40:43.527Z,9.20
2017-09-24T00:43:11.033Z,9.20
2017-09-24T00:45:38.579Z,9.20
2017-09-24T00:48:06.121Z,9.20
2017-09-24T00:50:34.585Z,9.40
2017-09-24T00:53:02.077Z,9.40
2017-09-24T00:55:30.777Z,9.40
2017-09-24T00:57:58.279Z,9.40
2017-09-24T01:00:25.780Z,9.40
2017-09-24T01:02:53.317Z,9.40
2017-09-24T01:05:20.814Z,9.40
2017-09-24T01:07:48.355Z,9.50
2017-09-24T01:10:15.851Z,9.50
2017-09-24T01:12:43.384Z,9.50
2017-09-24T01:15:10.889Z,9.50
2017-09-24T01:17:39.474Z,9.50
2017-09-24T01:20:06.977Z,9.50
2017-09-24T01:22:34.493Z,9.50
2017-09-24T01:25:02.043Z,9.40
2017-09-24T01:27:30.324Z,9.50
2017-09-24T01:32:48.994Z,9.50
2017-09-24T01:35:16.526Z,9.60
2017-09-24T01:37:44.052Z,9.60
2017-09-24T01:40:11.755Z,9.50
2017-09-24T01:42:39.261Z,9.40
2017-09-24T01:45:06.761Z,9.40
2017-09-24T01:47:34.298Z,9.50
2017-09-24T01:50:01.811Z,9.60
2017-09-24T01:52:30.230Z,9.40
2017-09-24T01:54:57.730Z,9.40
2017-09-24T01:57:26.011Z,9.30
2017-09-24T01:59:53.837Z,9.30
2017-09-24T02:02:22.102Z,9.40
2017-09-24T02:04:50.406Z,9.30
2017-09-24T02:07:17.906Z,9.30
2017-09-24T02:09:46.210Z,9.30
2017-09-24T02:12:13.714Z,9.30
2017-09-24T02:14:41.253Z,9.40
2017-09-24T02:17:09.520Z,9.40
2017-09-24T02:19:37.983Z,9.40
2017-09-24T02:22:06.306Z,9.40
2017-09-24T02:24:33.822Z,9.40
2017-09-24T02:27:01.355Z,9.40
2017-09-24T02:29:28.857Z,9.50
2017-09-24T02:31:56.403Z,9.50
2017-09-24T02:34:23.903Z,9.60
2017-09-24T02:36:51.546Z,9.60
2017-09-24T02:39:19.054Z,9.60
2017-09-24T02:41:47.331Z,9.60
2017-09-24T02:44:14.867Z,9.60
2017-09-24T02:46:43.131Z,9.80
2017-09-24T02:49:10.665Z,9.70
2017-09-24T02:51:38.170Z,9.80
2017-09-24T02:54:05.698Z,9.90
2017-09-24T02:56:33.230Z,10.00
2017-09-24T02:59:00.914Z,10.00
2017-09-24T03:01:28.421Z,10.00
2017-09-24T03:03:55.933Z,10.00
2017-09-24T03:06:24.241Z,10.00
2017-09-24T03:08:51.750Z,10.00
2017-09-24T03:11:19.300Z,10.10
2017-09-24T03:13:46.810Z,10.10
2017-09-24T03:16:14.706Z,10.20
2017-09-24T03:18:42.973Z,10.20
2017-09-24T03:21:10.478Z,10.20
2017-09-24T03:23:38.018Z,10.20
2017-09-24T03:26:06.285Z,10.30
2017-09-24T03:28:34.595Z,10.30
2017-09-24T03:31:02.096Z,10.20
2017-09-24T03:33:30.407Z,10.40
2017-09-24T03:35:57.914Z,10.40
2017-09-24T03:38:25.594Z,10.40
2017-09-24T03:40:53.113Z,10.40
2017-09-24T03:43:20.637Z,10.40
2017-09-24T03:45:48.950Z,10.40
2017-09-24T03:48:16.473Z,10.40
2017-09-24T03:50:44.733Z,10.40
2017-09-24T03:53:13.007Z,10.50
2017-09-24T03:55:40.537Z,10.50
2017-09-24T03:58:08.045Z,10.50
2017-09-24T04:00:36.353Z,10.50
2017-09-24T04:03:03.869Z,10.50
2017-09-24T04:05:31.741Z,10.50
2017-09-24T04:07:59.243Z,10.60
2017-09-24T04:10:26.754Z,10.50
2017-09-24T04:12:54.331Z,10.50
2017-09-24T04:15:21.862Z,10.50
2017-09-24T04:17:49.394Z,10.60
2017-09-24T04:20:16.905Z,10.50
2017-09-24T04:22:44.442Z,10.60
2017-09-24T04:25:12.719Z,10.60
2017-09-24T04:27:40.254Z,10.60
2017-09-24T04:30:07.766Z,10.60
2017-09-24T04:32:36.429Z,10.60
2017-09-24T04:35:04.717Z,10.70
2017-09-24T04:37:32.222Z,10.60
2017-09-24T04:39:59.761Z,10.70
2017-09-24T04:42:27.271Z,10.70
2017-09-24T04:44:54.815Z,10.70
2017-09-24T04:47:22.314Z,10.70
2017-09-24T04:49:50.634Z,10.70
2017-09-24T04:52:18.137Z,10.60
2017-09-24T04:54:45.682Z,10.70
2017-09-24T04:57:13.197Z,10.70
2017-09-24T04:59:40.706Z,10.70
2017-09-24T05:02:08.291Z,10.70
2017-09-24T05:04:35.825Z,10.70
2017-09-24T05:07:03.369Z,10.70
2017-09-24T05:09:30.870Z,10.70
2017-09-24T05:11:58.408Z,10.70
2017-09-24T05:14:25.919Z,10.60
2017-09-24T05:16:54.229Z,10.70
2017-09-24T05:19:22.373Z,10.70
2017-09-24T05:21:50.340Z,10.70
2017-09-24T05:24:17.847Z,10.70
2017-09-24T05:26:45.361Z,10.70
2017-09-24T05:29:12.904Z,10.80
2017-09-24T05:31:40.413Z,10.80
2017-09-24T05:34:07.949Z,10.80
2017-09-24T05:36:35.455Z,10.80
2017-09-24T05:39:02.966Z,10.90
2017-09-24T05:41:30.507Z,10.90
2017-09-24T05:43:58.235Z,10.90
2017-09-24T05:46:26.453Z,10.90
2017-09-24T05:48:54.722Z,11.00
2017-09-24T05:51:23.268Z,11.00
2017-09-24T05:53:51.653Z,11.00
2017-09-24T05:56:19.174Z,11.00
2017-09-24T05:58:46.706Z,11.00
2017-09-24T06:01:14.505Z,10.90
2017-09-24T06:03:42.082Z,11.00
2017-09-24T06:06:09.611Z,11.10
2017-09-24T06:08:37.173Z,11.10
2017-09-24T06:11:04.709Z,11.10
2017-09-24T06:13:32.247Z,11.10
2017-09-24T06:15:59.762Z,11.00
2017-09-24T06:18:27.422Z,11.10
2017-09-24T06:20:54.937Z,11.20
2017-09-24T06:23:23.223Z,11.30
2017-09-24T06:25:50.771Z,11.30
2017-09-24T06:28:18.296Z,11.30
2017-09-24T06:30:45.857Z,11.20
2017-09-24T06:33:13.394Z,11.20
2017-09-24T06:35:40.956Z,11.30
2017-09-24T06:38:08.482Z,11.30
2017-09-24T06:40:36.129Z,11.20
2017-09-24T06:43:04.453Z,11.20
2017-09-24T06:45:31.958Z,11.10
2017-09-24T06:47:59.502Z,11.20
2017-09-24T06:50:27.007Z,11.20
2017-09-24T06:52:55.526Z,11.20
2017-09-24T06:55:23.067Z,11.20
2017-09-24T06:57:50.759Z,11.30
2017-09-24T07:00:18.258Z,11.30
2017-09-24T07:02:45.773Z,11.40
2017-09-24T07:05:13.322Z,11.40
2017-09-24T07:07:40.829Z,11.50
2017-09-24T07:10:08.366Z,11.60
2017-09-24T07:12:35.874Z,11.60
2017-09-24T07:15:03.520Z,11.70
2017-09-24T07:17:31.077Z,11.80
2017-09-24T07:19:58.620Z,11.90
2017-09-24T07:22:26.136Z,12.00
2017-09-24T07:24:53.669Z,12.00
2017-09-24T07:27:21.219Z,12.00
2017-09-24T07:29:48.729Z,11.90
2017-09-24T07:32:16.277Z,12.10
2017-09-24T07:34:43.793Z,12.10
2017-09-24T07:37:11.507Z,12.00
2017-09-24T07:39:39.020Z,12.00
2017-09-24T07:42:07.306Z,11.80
2017-09-24T07:44:34.853Z,11.80
2017-09-24T07:47:02.361Z,11.80
2017-09-24T07:49:29.898Z,11.80
2017-09-24T07:51:57.405Z,11.80
2017-09-24T07:54:25.053Z,11.80
2017-09-24T07:56:52.596Z,11.90
2017-09-24T07:59:20.110Z,11.90
2017-09-24T08:01:47.661Z,11.90
2017-09-24T08:04:15.188Z,12.10
2017-09-24T08:06:43.504Z,12.30
2017-09-24T08:09:11.034Z,12.30
2017-09-24T08:11:38.580Z,12.40
2017-09-24T08:14:06.085Z,12.60
2017-09-24T08:16:34.557Z,12.70
2017-09-24T08:19:02.080Z,12.60
2017-09-24T08:21:30.371Z,12.80
2017-09-24T08:23:57.930Z,12.80
2017-09-24T08:26:25.461Z,13.00
2017-09-24T08:28:53.021Z,13.10
2017-09-24T08:31:20.526Z,13.00
2017-09-24T08:33:48.946Z,13.00
2017-09-24T08:36:17.174Z,13.00
2017-09-24T08:38:44.679Z,13.10
2017-09-24T08:41:12.242Z,13.10
2017-09-24T08:43:40.535Z,13.50
2017-09-24T08:46:08.074Z,13.50
2017-09-24T08:48:35.610Z,13.60
2017-09-24T08:51:03.165Z,13.60
2017-09-24T08:53:30.670Z,13.70
2017-09-24T08:55:58.368Z,13.80
2017-09-24T08:58:25.878Z,14.00
2017-09-24T09:00:54.171Z,14.20
2017-09-24T09:03:21.718Z,14.10
2017-09-24T09:05:49.224Z,14.30
2017-09-24T09:08:17.522Z,14.40
2017-09-24T09:10:45.070Z,14.40
2017-09-24T09:13:12.770Z,14.30
2017-09-24T09:15:41.047Z,14.40
2017-09-24T09:18:08.586Z,14.30
2017-09-24T09:20:36.886Z,14.60
2017-09-24T09:23:04.395Z,14.50
2017-09-24T09:25:32.702Z,15.10
2017-09-24T09:28:00.207Z,15.00
2017-09-24T09:30:27.738Z,15.20
2017-09-24T09:33:07.011Z,15.10
2017-09-24T09:35:34.562Z,15.20
2017-09-24T09:38:02.086Z,15.40
2017-09-24T09:40:30.558Z,15.30
2017-09-24T09:42:58.077Z,15.30
2017-09-24T09:45:37.561Z,15.40
2017-09-24T09:48:05.074Z,15.50
2017-09-24T09:50:32.576Z,15.80
2017-09-24T09:53:00.882Z,16.60
2017-09-24T09:55:28.390Z,16.60
2017-09-24T09:57:55.962Z,17.20
2017-09-24T10:00:23.475Z,18.10
2017-09-24T10:02:51.030Z,19.30
2017-09-24T10:05:18.530Z,20.90
2017-09-24T10:07:57.929Z,22.10
2017-09-24T10:10:25.440Z,22.50
2017-09-24T10:12:52.970Z,22.00
2017-09-24T10:15:20.484Z,21.20
2017-09-24T10:17:48.013Z,20.80
2017-09-24T10:20:15.554Z,21.00
2017-09-24T10:22:43.080Z,21.90
2017-09-24T10:25:10.630Z,23.10
2017-09-24T10:27:38.138Z,23.90
2017-09-24T10:30:17.646Z,24.80
2017-09-24T10:32:45.914Z,24.80
2017-09-24T10:35:14.182Z,25.20
2017-09-24T10:37:41.728Z,25.10
2017-09-24T10:40:09.230Z,25.50
2017-09-24T10:42:36.773Z,25.30
2017-09-24T10:45:04.288Z,24.70
2017-09-24T10:47:31.829Z,25.10
2017-09-24T10:49:59.341Z,25.10
2017-09-24T10:52:27.670Z,25.10
2017-09-24T10:54:55.173Z,25.00
2017-09-24T10:57:22.706Z,24.80
2017-09-24T10:59:50.253Z,24.30
2017-09-24T11:02:17.763Z,23.20
2017-09-24T11:04:46.117Z,22.10
2017-09-24T11:07:13.625Z,22.00
2017-09-24T11:09:41.157Z,21.90
2017-09-24T11:12:08.673Z,21.80
2017-09-24T11:14:36.224Z,21.40
2017-09-24T11:17:03.730Z,20.90
2017-09-24T11:19:31.257Z,20.60
2017-09-24T11:21:58.754Z,20.70
2017-09-24T11:24:26.253Z,20.50
2017-09-24T11:26:53.787Z,20.10
2017-09-24T11:29:21.306Z,20.10
2017-09-24T11:31:48.843Z,20.40
2017-09-24T11:34:16.347Z,20.40
2017-09-24T11:36:43.877Z,20.50
2017-09-24T11:39:11.414Z,20.30
2017-09-24T11:41:38.958Z,20.40
2017-09-24T11:44:08.120Z,20.40
2017-09-24T11:46:36.139Z,20.60
2017-09-24T11:49:03.741Z,20.50
2017-09-24T11:51:31.299Z,20.60
2017-09-24T11:53:58.829Z,20.80
2017-09-24T11:56:26.353Z,20.90
2017-09-24T11:58:54.058Z,21.00
2017-09-24T12:01:22.334Z,21.60
2017-09-24T12:03:49.916Z,21.60
2017-09-24T12:06:17.432Z,21.80
2017-09-24T12:08:44.965Z,22.10
2017-09-24T12:11:12.497Z,22.40
2017-09-24T12:13:40.758Z,22.30
2017-09-24T12:16:08.309Z,22.30
2017-09-24T12:18:35.826Z,22.30
2017-09-24T12:21:03.370Z,22.10
2017-09-24T12:23:30.893Z,21.80
2017-09-24T12:25:58.439Z,21.70
2017-09-24T12:28:25.946Z,21.40
2017-09-24T12:30:53.477Z,20.90
2017-09-24T12:33:20.982Z,20.80
2017-09-24T12:35:48.516Z,20.90
2017-09-24T12:38:16.022Z,21.20
2017-09-24T12:40:43.565Z,21.60
2017-09-24T12:43:11.062Z,22.10
2017-09-24T12:45:38.733Z,22.40
2017-09-24T12:48:07.006Z,22.80
2017-09-24T12:50:34.523Z,22.70
2017-09-24T12:53:02.050Z,22.90
2017-09-24T12:55:29.549Z,22.90
2017-09-24T12:57:57.130Z,22.90
2017-09-24T13:00:24.641Z,22.70
2017-09-24T13:02:52.181Z,22.70
2017-09-24T13:05:19.706Z,22.70
2017-09-24T13:07:47.251Z,22.50
2017-09-24T13:10:14.782Z,22.30
2017-09-24T13:12:43.090Z,22.30
2017-09-24T13:15:10.639Z,22.20
2017-09-24T13:17:38.170Z,22.10
2017-09-24T13:20:05.678Z,22.10
2017-09-24T13:22:33.999Z,22.00
2017-09-24T13:25:01.588Z,22.00
2017-09-24T13:27:29.873Z,21.90
2017-09-24T13:29:57.413Z,21.90
2017-09-24T13:32:24.910Z,22.00
2017-09-24T13:34:52.442Z,21.90
2017-09-24T13:37:19.971Z,21.70
2017-09-24T13:39:47.501Z,21.60
2017-09-24T13:42:15.061Z,21.50
2017-09-24T13:44:42.562Z,21.60
2017-09-24T13:47:10.866Z,21.60
2017-09-24T13:49:38.382Z,21.50
2017-09-24T13:52:05.914Z,21.60
2017-09-24T13:54:34.274Z,22.10
2017-09-24T13:57:02.562Z,22.10
2017-09-24T13:59:30.102Z,22.10
2017-09-24T14:01:57.616Z,22.00
2017-09-24T14:04:25.917Z,21.70
2017-09-24T14:06:53.421Z,21.60
2017-09-24T14:09:20.962Z,21.50
2017-09-24T14:11:48.469Z,21.40
2017-09-24T14:14:16.014Z,21.20
2017-09-24T14:16:43.515Z,21.10
2017-09-24T14:19:11.067Z,21.10
2017-09-24T14:21:38.593Z,21.10
2017-09-24T14:24:07.434Z,21.10
2017-09-24T14:26:34.946Z,21.10
2017-09-24T14:29:02.467Z,21.10
2017-09-24T14:31:30.008Z,21.20
2017-09-24T14:33:57.515Z,21.20
2017-09-24T14:36:25.070Z,21.20
2017-09-24T14:38:52.580Z,21.40
2017-09-24T14:41:20.755Z,21.70
2017-09-24T14:43:48.254Z,22.00
2017-09-24T14:46:15.803Z,22.20
2017-09-24T14:48:43.305Z,22.40
2017-09-24T14:51:10.841Z,22.30
2017-09-24T14:53:38.444Z,22.50
2017-09-24T14:56:06.033Z,22.60
2017-09-24T14:58:33.537Z,22.70
2017-09-24T15:01:01.946Z,22.50
2017-09-24T15:03:29.472Z,22.40
2017-09-24T15:05:57.048Z,22.10
2017-09-24T15:08:25.313Z,21.60
2017-09-24T15:10:53.720Z,21.40
2017-09-24T15:13:21.271Z,21.30
2017-09-24T15:15:48.882Z,21.20
2017-09-24T15:18:16.426Z,21.10
2017-09-24T15:20:43.917Z,20.90
2017-09-24T15:23:11.462Z,20.70
2017-09-24T15:25:38.987Z,20.70
2017-09-24T15:28:07.292Z,20.50
2017-09-24T15:30:35.582Z,20.50
2017-09-24T15:33:03.122Z,20.50
2017-09-24T15:35:31.422Z,20.40
2017-09-24T15:37:59.356Z,20.40
2017-09-24T15:40:26.933Z,20.30
2017-09-24T15:42:54.440Z,20.20
2017-09-24T15:45:22.025Z,20.20
2017-09-24T15:47:49.534Z,20.10
2017-09-24T15:50:17.061Z,20.10
2017-09-24T15:52:44.562Z,20.10
2017-09-24T15:55:12.216Z,20.00
2017-09-24T15:57:39.728Z,20.00
2017-09-24T16:00:07.242Z,20.00
2017-09-24T16:02:34.782Z,20.00
2017-09-24T16:05:03.066Z,19.80
2017-09-24T16:07:30.601Z,19.80
2017-09-24T16:09:58.105Z,19.70
2017-09-24T16:12:25.641Z,19.60
2017-09-24T16:14:53.140Z,19.50
2017-09-24T16:17:20.686Z,19.40
2017-09-24T16:19:48.190Z,19.30
2017-09-24T16:22:16.513Z,18.90
2017-09-24T16:24:44.012Z,18.90
2017-09-24T16:27:11.563Z,18.80
2017-09-24T16:29:39.071Z,18.60
2017-09-24T16:32:06.719Z,18.40
2017-09-24T16:34:34.250Z,18.20
2017-09-24T16:37:01.758Z,18.00
2017-09-24T16:39:29.642Z,17.90
2017-09-24T16:41:57.158Z,17.70
2017-09-24T16:44:24.697Z,17.60
2017-09-24T16:46:52.205Z,17.40
2017-09-24T16:49:20.525Z,17.10
2017-09-24T16:51:48.041Z,17.10
2017-09-24T16:54:15.573Z,16.90
2017-09-24T16:56:43.078Z,16.80
2017-09-24T16:59:10.618Z,16.70
2017-09-24T17:01:38.131Z,16.50
2017-09-24T17:04:05.642Z,16.40
2017-09-24T17:06:34.015Z,16.10
2017-09-24T17:09:01.518Z,16.10
2017-09-24T17:11:29.080Z,16.00
2017-09-24T17:13:57.350Z,15.80
2017-09-24T17:16:24.886Z,15.70
2017-09-24T17:18:53.185Z,15.50
2017-09-24T17:21:20.711Z,15.50
2017-09-24T17:23:48.248Z,15.50
2017-09-24T17:26:17.265Z,15.30
2017-09-24T17:28:44.787Z,15.30
2017-09-24T17:31:12.513Z,15.20
2017-09-24T17:33:40.781Z,15.00
2017-09-24T17:36:08.827Z,15.00
2017-09-24T17:38:37.469Z,14.90
2017-09-24T17:41:04.988Z,14.90
2017-09-24T17:43:32.542Z,14.90
2017-09-24T17:46:00.053Z,15.00
2017-09-24T17:48:27.593Z,14.90
2017-09-24T17:50:55.101Z,15.00
2017-09-24T17:53:22.634Z,15.00
2017-09-24T17:55:50.134Z,15.00
2017-09-24T17:58:17.694Z,14.90
2017-09-24T18:00:45.198Z,14.90
2017-09-24T18:03:13.493Z,14.80
2017-09-24T18:05:40.990Z,14.80
2017-09-24T18:08:09.644Z,14.60
2017-09-24T18:10:37.150Z,14.50
2017-09-24T18:13:04.645Z,14.40
2017-09-24T18:15:34.004Z,14.40
2017-09-24T18:18:01.566Z,14.30
2017-09-24T18:20:29.192Z,14.20
2017-09-24T18:22:56.759Z,14.10
2017-09-24T18:25:24.309Z,14.00
2017-09-24T18:27:51.810Z,13.90
2017-09-24T18:30:19.374Z,13.90
2017-09-24T18:32:46.877Z,13.80
2017-09-24T18:35:14.413Z,13.80
2017-09-24T18:37:41.916Z,13.70
2017-09-24T18:40:09.657Z,13.70
2017-09-24T18:42:37.181Z,13.60
2017-09-24T18:45:05.687Z,13.60
2017-09-24T18:47:33.570Z,13.60
2017-09-24T18:50:01.123Z,13.60
2017-09-24T18:52:28.804Z,13.50
2017-09-24T18:54:56.327Z,13.50
2017-09-24T18:57:24.266Z,13.40
2017-09-24T18:59:51.831Z,13.30
2017-09-24T19:02:20.172Z,13.20
2017-09-24T19:04:47.681Z,13.20
2017-09-24T19:07:15.271Z,13.20
2017-09-24T19:09:42.794Z,13.10
2017-09-24T19:12:11.095Z,13.00
2017-09-24T19:14:38.669Z,13.00
2017-09-24T19:17:06.566Z,13.10
2017-09-24T19:19:34.078Z,13.10
2017-09-24T19:22:01.627Z,13.10
2017-09-24T19:24:29.170Z,13.00
2017-09-24T19:26:56.672Z,13.00
2017-09-24T19:29:24.216Z,12.90
2017-09-24T19:31:51.714Z,12.90
2017-09-24T19:34:20.035Z,12.80
2017-09-24T19:36:47.537Z,12.80
2017-09-24T19:39:15.081Z,12.70
2017-09-24T19:41:42.601Z,12.70
2017-09-24T19:44:10.916Z,12.50
2017-09-24T19:46:38.430Z,12.50
2017-09-24T19:49:06.315Z,12.50
2017-09-24T19:51:33.823Z,12.40
2017-09-24T19:54:01.350Z,12.30
2017-09-24T19:56:29.653Z,12.30
2017-09-24T19:58:57.671Z,12.30
2017-09-24T20:01:26.203Z,12.30
2017-09-24T20:03:54.010Z,12.30
2017-09-24T20:06:21.549Z,12.20
2017-09-24T20:08:49.059Z,12.20
2017-09-24T20:11:16.682Z,12.10
2017-09-24T20:13:44.190Z,12.10
2017-09-24T20:16:11.732Z,12.20
2017-09-24T20:18:39.397Z,12.20
2017-09-24T20:21:06.930Z,12.30
2017-09-24T20:23:35.226Z,12.40
2017-09-24T20:26:02.914Z,12.50
2017-09-24T20:28:31.213Z,12.50
2017-09-24T20:30:58.900Z,12.50
2017-09-24T20:33:26.446Z,12.50
2017-09-24T20:35:54.001Z,12.60
2017-09-24T20:38:21.559Z,12.60
2017-09-24T20:40:49.062Z,12.50
2017-09-24T20:43:16.618Z,12.50
2017-09-24T20:45:44.240Z,12.50
2017-09-24T20:48:11.810Z,12.50
2017-09-24T20:50:39.398Z,12.40
2017-09-24T20:53:07.046Z,12.30
2017-09-24T20:55:34.562Z,12.30
2017-09-24T20:58:02.834Z,12.40
2017-09-24T21:00:31.405Z,12.40
2017-09-24T21:02:58.909Z,12.40
2017-09-24T21:05:26.454Z,12.40
2017-09-24T21:07:53.960Z,12.30
2017-09-24T21:10:21.490Z,12.20
2017-09-24T21:12:48.989Z,12.20
2017-09-24T21:15:16.685Z,12.20
2017-09-24T21:17:44.189Z,12.10
2017-09-24T21:20:11.699Z,12.10
2017-09-24T21:22:39.254Z,12.10
2017-09-24T21:25:06.755Z,12.10
2017-09-24T21:27:34.290Z,12.00
2017-09-24T21:30:02.559Z,12.00
2017-09-24T21:32:30.089Z,12.00
2017-09-24T21:34:58.356Z,12.00
2017-09-24T21:37:26.659Z,12.00
2017-09-24T21:39:54.166Z,12.00
2017-09-24T21:42:21.805Z,11.90
2017-09-24T21:44:50.073Z,11.70
2017-09-24T21:47:18.346Z,11.70
2017-09-24T21:49:45.878Z,11.60
2017-09-24T21:52:13.391Z,11.70
2017-09-24T21:54:40.932Z,11.70
2017-09-24T21:57:08.421Z,11.70
2017-09-24T21:59:35.961Z,11.70
2017-09-24T22:02:03.513Z,11.70
2017-09-24T22:04:31.059Z,11.70
2017-09-24T22:06:58.549Z,11.70
2017-09-24T22:09:26.355Z,11.70
2017-09-24T22:11:53.858Z,11.70
2017-09-24T22:14:21.359Z,11.60
2017-09-24T22:16:48.961Z,11.50
2017-09-24T22:19:17.223Z,11.50
2017-09-24T22:21:45.524Z,11.40
2017-09-24T22:24:13.035Z,11.40
2017-09-24T22:26:40.605Z,11.40
2017-09-24T22:29:08.109Z,11.40
2017-09-24T22:31:36.589Z,11.40
2017-09-24T22:34:04.853Z,11.30
2017-09-24T22:36:32.359Z,11.30
2017-09-24T22:38:59.889Z,11.20
2017-09-24T22:41:27.386Z,11.00
2017-09-24T22:43:54.927Z,10.90
2017-09-24T22:46:22.429Z,10.80
2017-09-24T22:48:49.983Z,10.80
2017-09-24T22:51:17.507Z,10.80
2017-09-24T22:53:45.104Z,10.80
2017-09-24T22:56:12.606Z,10.80
2017-09-24T22:58:40.517Z,10.80
2017-09-24T23:01:08.035Z,10.80
2017-09-24T23:03:36.306Z,10.80
2017-09-24T23:06:03.850Z,10.80
2017-09-24T23:08:32.114Z,10.90
2017-09-24T23:10:59.650Z,10.80
2017-09-24T23:13:27.946Z,10.90
2017-09-24T23:15:55.482Z,10.80
2017-09-24T23:18:22.985Z,10.80
2017-09-24T23:20:51.610Z,11.00
2017-09-24T23:23:19.105Z,10.90
2017-09-24T23:25:47.373Z,11.20
2017-09-24T23:28:15.670Z,11.20
2017-09-24T23:30:43.177Z,11.20
2017-09-24T23:33:11.478Z,11.20
2017-09-24T23:35:39.750Z,11.20
2017-09-24T23:38:07.285Z,11.20
2017-09-24T23:40:34.794Z,11.20
2017-09-24T23:43:03.502Z,11.10
2017-09-24T23:45:31.007Z,11.10
2017-09-24T23:47:59.269Z,11.00
2017-09-24T23:50:26.810Z,11.00
2017-09-24T23:52:55.074Z,10.70
2017-09-24T23:55:22.605Z,10.70
2017-09-24T23:57:50.106Z,10.70
